createdAt,value
2018-01-14T00:01:29.397Z,43.10
2018-01-14T00:03:57.824Z,46.10
2018-01-14T00:06:25.421Z,48.50
2018-01-14T00:08:52.996Z,39.20
2018-01-14T00:11:21.382Z,50.77
2018-01-14T00:13:49.705Z,47.57
2018-01-14T00:16:17.273Z,52.13
2018-01-14T00:18:44.853Z,57.73
2018-01-14T00:21:12.541Z,46.27
2018-01-14T00:23:40.881Z,45.23
2018-01-14T00:26:08.592Z,50.70
2018-01-14T00:28:36.913Z,46.20
2018-01-14T00:31:04.545Z,47.00
2018-01-14T00:33:32.133Z,39.07
2018-01-14T00:35:59.708Z,47.07
2018-01-14T00:38:27.317Z,44.50
2018-01-14T00:40:55.666Z,53.03
2018-01-14T00:43:23.247Z,44.63
2018-01-14T00:45:51.599Z,48.53
2018-01-14T00:48:19.534Z,44.90
2018-01-14T00:50:47.095Z,44.60
2018-01-14T00:53:14.752Z,41.87
2018-01-14T00:55:42.309Z,57.23
2018-01-14T00:58:09.873Z,50.60
2018-01-14T01:00:37.575Z,39.03
2018-01-14T01:03:05.149Z,44.90
2018-01-14T01:05:32.709Z,45.87
2018-01-14T01:08:00.386Z,46.83
2018-01-14T01:10:28.786Z,41.77
2018-01-14T01:12:56.377Z,47.77
2018-01-14T01:15:23.953Z,40.67
2018-01-14T01:17:51.512Z,43.53
2018-01-14T01:20:19.096Z,44.00
2018-01-14T01:22:46.657Z,47.17
2018-01-14T01:25:14.341Z,38.67
2018-01-14T01:27:42.660Z,49.80
2018-01-14T01:30:16.261Z,52.83
2018-01-14T01:32:44.057Z,42.47
2018-01-14T01:35:11.616Z,50.70
2018-01-14T01:37:39.184Z,51.20
2018-01-14T01:40:06.732Z,46.00
2018-01-14T01:42:34.309Z,47.63
2018-01-14T01:45:01.865Z,44.20
2018-01-14T01:47:30.671Z,43.50
2018-01-14T01:49:58.249Z,45.13
2018-01-14T01:52:26.596Z,49.77
2018-01-14T01:54:54.189Z,49.90
2018-01-14T01:57:21.872Z,49.67
2018-01-14T01:59:49.433Z,57.47
2018-01-14T02:02:17.013Z,49.60
2018-01-14T02:04:44.577Z,50.23
2018-01-14T02:07:12.149Z,47.00
2018-01-14T02:22:40.529Z,46.63
2018-01-14T02:25:08.123Z,48.87
2018-01-14T02:27:36.449Z,53.20
2018-01-14T02:30:04.028Z,46.70
2018-01-14T02:32:31.576Z,45.80
2018-01-14T02:34:59.253Z,52.40
2018-01-14T02:37:26.896Z,49.73
2018-01-14T02:39:54.504Z,54.07
2018-01-14T02:42:22.884Z,45.83
2018-01-14T02:44:51.298Z,42.53
2018-01-14T02:47:18.870Z,52.83
2018-01-14T02:49:46.425Z,47.90
2018-01-14T02:52:14.002Z,47.40
2018-01-14T02:54:42.332Z,45.10
2018-01-14T02:57:10.084Z,46.40
2018-01-14T02:59:38.396Z,52.90
2018-01-14T03:02:05.973Z,50.87
2018-01-14T03:04:33.532Z,53.50
2018-01-14T03:07:01.124Z,45.00
2018-01-14T03:09:28.765Z,42.80
2018-01-14T03:11:56.538Z,45.30
2018-01-14T03:14:24.104Z,44.60
2018-01-14T03:16:51.680Z,42.83
2018-01-14T03:19:19.249Z,43.30
2018-01-14T03:21:47.578Z,44.13
2018-01-14T03:24:15.278Z,48.13
2018-01-14T03:26:42.826Z,42.70
2018-01-14T03:29:10.390Z,41.00
2018-01-14T03:31:37.972Z,43.77
2018-01-14T03:34:06.321Z,47.97
2018-01-14T03:36:34.669Z,56.43
2018-01-14T03:39:02.284Z,56.87
2018-01-14T03:41:29.837Z,49.50
2018-01-14T03:43:57.416Z,48.67
2018-01-14T03:46:25.761Z,45.87
2018-01-14T03:48:53.336Z,46.53
2018-01-14T03:51:21.532Z,42.77
2018-01-14T03:53:49.872Z,54.60
2018-01-14T03:56:17.458Z,46.93
2018-01-14T03:58:45.038Z,45.63
2018-01-14T04:01:13.369Z,46.03
2018-01-14T04:03:40.965Z,51.67
2018-01-14T04:06:08.809Z,45.23
2018-01-14T04:08:36.373Z,42.70
2018-01-14T04:11:03.925Z,54.87
2018-01-14T04:13:31.507Z,40.77
2018-01-14T04:15:59.071Z,51.70
2018-01-14T04:18:26.650Z,43.83
2018-01-14T04:20:54.982Z,44.67
2018-01-14T04:23:22.576Z,45.30
2018-01-14T04:25:50.154Z,48.47
2018-01-14T04:28:18.472Z,49.70
2018-01-14T04:30:46.089Z,52.03
2018-01-14T04:33:14.404Z,47.63
2018-01-14T04:35:42.013Z,50.23
2018-01-14T04:51:09.597Z,41.63
2018-01-14T04:53:37.196Z,43.60
2018-01-14T04:56:04.784Z,46.13
2018-01-14T04:58:32.356Z,56.83
2018-01-14T05:00:59.941Z,43.93
2018-01-14T05:03:27.504Z,44.00
2018-01-14T05:05:55.852Z,51.47
2018-01-14T05:08:24.188Z,39.20
2018-01-14T05:10:51.776Z,41.40
2018-01-14T05:13:19.332Z,44.60
2018-01-14T05:15:46.908Z,40.77
2018-01-14T05:18:14.485Z,50.77
2018-01-14T05:20:42.815Z,42.47
2018-01-14T05:23:10.502Z,41.30
2018-01-14T05:25:38.077Z,51.13
2018-01-14T05:28:05.717Z,41.87
2018-01-14T05:30:33.283Z,46.50
2018-01-14T05:33:00.864Z,45.77
2018-01-14T05:35:28.409Z,45.00
2018-01-14T05:37:55.976Z,41.63
2018-01-14T05:40:23.544Z,40.70
2018-01-14T05:42:51.883Z,43.23
2018-01-14T05:45:19.443Z,45.60
2018-01-14T05:47:47.157Z,42.97
2018-01-14T05:50:15.494Z,41.43
2018-01-14T05:52:43.069Z,48.50
2018-01-14T05:55:10.653Z,47.13
2018-01-14T05:57:39.137Z,56.37
2018-01-14T06:00:07.489Z,41.60
2018-01-14T06:02:35.052Z,45.53
2018-01-14T06:05:02.633Z,39.67
2018-01-14T06:07:31.032Z,44.77
2018-01-14T06:09:58.606Z,40.50
2018-01-14T06:12:26.512Z,44.00
2018-01-14T06:14:54.080Z,39.50
2018-01-14T06:17:21.641Z,41.73
2018-01-14T06:19:49.220Z,34.90
2018-01-14T06:22:17.584Z,37.17
2018-01-14T06:24:45.161Z,38.23
2018-01-14T06:27:13.497Z,35.43
2018-01-14T06:29:41.081Z,40.63
2018-01-14T06:32:08.735Z,47.93
2018-01-14T06:34:36.284Z,34.97
2018-01-14T06:37:03.910Z,37.87
2018-01-14T06:39:31.449Z,41.37
2018-01-14T06:41:59.789Z,38.47
2018-01-14T06:44:27.355Z,38.23
2018-01-14T06:46:54.944Z,42.90
2018-01-14T06:49:23.269Z,42.50
2018-01-14T06:51:50.891Z,37.33
2018-01-14T06:54:19.226Z,41.93
2018-01-14T06:56:46.780Z,41.47
2018-01-14T06:59:14.385Z,38.53
2018-01-14T07:01:41.942Z,37.37
2018-01-14T07:04:09.528Z,36.10
2018-01-14T07:06:37.114Z,44.67
2018-01-14T07:09:04.677Z,35.40
2018-01-14T07:11:32.259Z,39.73
2018-01-14T07:14:00.601Z,43.43
2018-01-14T07:16:28.197Z,36.37
2018-01-14T07:18:55.790Z,40.00
2018-01-14T07:21:24.144Z,38.13
2018-01-14T07:23:51.709Z,32.27
2018-01-14T07:26:20.074Z,38.87
2018-01-14T07:28:47.642Z,31.50
2018-01-14T07:31:15.213Z,34.57
2018-01-14T07:33:42.798Z,31.90
2018-01-14T07:36:11.113Z,28.27
2018-01-14T07:38:38.685Z,30.97
2018-01-14T07:41:06.245Z,29.00
2018-01-14T07:43:33.838Z,35.33
2018-01-14T07:46:01.463Z,27.73
2018-01-14T07:48:29.031Z,30.33
2018-01-14T07:50:56.584Z,29.27
2018-01-14T07:53:24.192Z,29.53
2018-01-14T07:55:51.741Z,33.10
2018-01-14T07:58:19.337Z,30.23
2018-01-14T08:00:47.675Z,27.10
2018-01-14T08:03:15.282Z,29.60
2018-01-14T08:05:42.865Z,35.03
2018-01-14T08:08:10.425Z,27.10
2018-01-14T08:10:38.050Z,28.93
2018-01-14T08:13:05.565Z,29.47
2018-01-14T08:15:33.168Z,29.47
2018-01-14T08:18:01.524Z,29.13
2018-01-14T08:20:29.096Z,32.30
2018-01-14T08:22:56.658Z,30.80
2018-01-14T08:25:24.268Z,33.20
2018-01-14T08:27:51.874Z,29.13
2018-01-14T08:30:19.441Z,28.63
2018-01-14T08:35:20.825Z,32.03
2018-01-14T08:37:49.236Z,30.43
2018-01-14T08:40:16.919Z,29.27
2018-01-14T08:42:44.508Z,30.40
2018-01-14T08:45:12.078Z,24.50
2018-01-14T08:47:40.409Z,28.00
2018-01-14T08:50:07.974Z,25.37
2018-01-14T08:52:35.929Z,24.73
2018-01-14T08:55:03.492Z,28.37
2018-01-14T08:57:31.089Z,31.07
2018-01-14T08:59:58.649Z,24.57
2018-01-14T09:02:26.224Z,30.20
2018-01-14T09:04:53.793Z,25.33
2018-01-14T09:07:22.134Z,31.50
2018-01-14T09:09:49.709Z,30.20
2018-01-14T09:12:17.356Z,26.73
2018-01-14T09:14:44.932Z,28.33
2018-01-14T09:17:12.509Z,27.57
2018-01-14T09:19:40.074Z,34.80
2018-01-14T09:22:07.636Z,25.93
2018-01-14T09:24:35.238Z,24.63
2018-01-14T09:27:02.802Z,32.90
2018-01-14T09:29:30.385Z,24.50
2018-01-14T09:31:57.972Z,31.87
2018-01-14T09:34:25.589Z,24.50
2018-01-14T09:36:53.166Z,24.07
2018-01-14T09:39:20.792Z,23.53
2018-01-14T09:41:48.388Z,21.83
2018-01-14T09:44:15.928Z,24.60
2018-01-14T09:46:43.483Z,26.17
2018-01-14T09:49:11.134Z,26.20
2018-01-14T09:51:39.483Z,26.73
2018-01-14T09:54:07.075Z,24.87
2018-01-14T09:56:35.416Z,20.17
2018-01-14T09:59:02.985Z,25.37
2018-01-14T10:01:30.582Z,21.87
2018-01-14T10:03:58.177Z,30.87
2018-01-14T10:06:25.751Z,30.97
2018-01-14T10:08:53.321Z,25.13
2018-01-14T10:11:20.905Z,31.37
2018-01-14T10:13:49.288Z,26.33
2018-01-14T10:16:17.691Z,28.60
2018-01-14T10:18:45.306Z,26.73
2018-01-14T10:21:12.904Z,25.67
2018-01-14T10:23:40.448Z,25.00
2018-01-14T10:26:09.093Z,25.50
2018-01-14T10:28:36.668Z,29.13
2018-01-14T10:31:04.246Z,26.83
2018-01-14T10:33:31.833Z,21.67
2018-01-14T10:36:00.266Z,29.47
2018-01-14T10:38:27.854Z,23.67
2018-01-14T10:40:55.474Z,26.23
2018-01-14T10:43:23.113Z,17.17
2018-01-14T10:45:50.689Z,31.33
2018-01-14T10:48:18.301Z,28.63
2018-01-14T10:50:46.689Z,22.53
2018-01-14T10:53:15.031Z,23.93
2018-01-14T10:55:42.625Z,28.63
2018-01-14T10:58:11.005Z,27.30
2018-01-14T11:00:44.917Z,28.93
2018-01-14T11:03:13.253Z,30.77
2018-01-14T11:05:40.929Z,36.63
2018-01-14T11:08:08.490Z,22.00
2018-01-14T11:10:36.054Z,30.97
2018-01-14T11:26:04.442Z,24.67
2018-01-14T11:28:39.489Z,21.87
2018-01-14T11:31:09.024Z,23.30
2018-01-14T11:33:36.646Z,28.93
2018-01-14T11:36:04.985Z,24.43
2018-01-14T11:38:32.600Z,27.10
2018-01-14T11:41:00.970Z,27.70
2018-01-14T11:43:29.387Z,26.93
2018-01-14T11:45:57.762Z,23.17
2018-01-14T11:48:25.360Z,24.40
2018-01-14T11:50:53.197Z,24.30
2018-01-14T11:53:20.793Z,25.00
2018-01-14T11:55:48.361Z,31.13
2018-01-14T11:58:15.950Z,24.60
2018-01-14T12:00:44.296Z,24.30
2018-01-14T12:03:11.883Z,27.13
2018-01-14T12:05:40.170Z,27.77
2018-01-14T12:08:08.583Z,19.93
2018-01-14T12:10:36.175Z,29.03
2018-01-14T12:13:03.785Z,25.10
2018-01-14T12:15:31.366Z,25.83
2018-01-14T12:17:58.962Z,27.03
2018-01-14T12:20:26.551Z,26.07
2018-01-14T12:22:54.873Z,27.60
2018-01-14T12:25:22.521Z,22.07
2018-01-14T12:27:50.086Z,27.97
2018-01-14T12:30:17.682Z,23.10
2018-01-14T12:32:57.319Z,25.50
2018-01-14T12:35:24.885Z,26.43
2018-01-14T12:37:52.474Z,21.00
2018-01-14T12:40:20.827Z,24.30
2018-01-14T12:42:48.402Z,27.30
2018-01-14T12:45:15.990Z,27.87
2018-01-14T12:47:43.558Z,28.60
2018-01-14T12:50:11.136Z,26.33
2018-01-14T12:52:38.726Z,24.63
2018-01-14T12:55:06.338Z,26.67
2018-01-14T12:57:33.931Z,26.80
2018-01-14T13:00:01.553Z,24.50
2018-01-14T13:02:29.917Z,26.07
2018-01-14T13:04:58.275Z,26.20
2018-01-14T13:07:25.869Z,25.03
2018-01-14T13:09:54.221Z,29.03
2018-01-14T13:12:21.794Z,30.80
2018-01-14T13:14:50.155Z,27.10
2018-01-14T13:17:17.741Z,26.40
2018-01-14T13:19:46.101Z,27.37
2018-01-14T13:22:13.664Z,27.03
2018-01-14T13:24:41.252Z,25.30
2018-01-14T13:27:09.667Z,30.20
2018-01-14T13:29:37.267Z,27.43
2018-01-14T13:32:04.880Z,25.17
2018-01-14T13:34:32.496Z,24.03
2018-01-14T13:37:00.068Z,28.63
2018-01-14T13:39:28.421Z,31.00
2018-01-14T13:41:56.021Z,26.40
2018-01-14T13:44:24.378Z,25.90
2018-01-14T13:46:51.966Z,24.57
2018-01-14T13:49:19.522Z,20.83
2018-01-14T13:51:47.121Z,23.93
2018-01-14T13:54:14.690Z,24.23
2018-01-14T13:56:43.059Z,22.70
2018-01-14T13:59:10.657Z,20.03
2018-01-14T14:01:38.271Z,23.20
2018-01-14T14:04:05.853Z,17.10
2018-01-14T14:06:33.474Z,20.20
2018-01-14T14:09:01.032Z,21.53
2018-01-14T14:11:28.609Z,23.70
2018-01-14T14:13:56.192Z,18.57
2018-01-14T14:16:23.767Z,20.60
2018-01-14T14:18:51.342Z,20.73
2018-01-14T14:21:18.952Z,19.07
2018-01-14T14:23:47.292Z,20.20
2018-01-14T14:26:14.864Z,18.73
2018-01-14T14:28:43.315Z,18.17
2018-01-14T14:31:10.880Z,18.07
2018-01-14T14:33:38.458Z,16.73
2018-01-14T14:36:06.797Z,18.13
2018-01-14T14:38:34.433Z,15.90
2018-01-14T14:41:02.008Z,17.57
2018-01-14T14:43:29.612Z,16.67
2018-01-14T14:45:57.160Z,18.43
2018-01-14T14:48:24.744Z,20.20
2018-01-14T14:50:52.321Z,19.83
2018-01-14T14:53:19.896Z,16.73
2018-01-14T14:55:47.478Z,20.13
2018-01-14T14:58:15.049Z,18.80
2018-01-14T15:00:42.649Z,18.50
2018-01-14T15:03:10.228Z,11.37
2018-01-14T15:05:37.865Z,21.67
2018-01-14T15:08:05.453Z,17.53
2018-01-14T15:10:33.048Z,20.37
2018-01-14T15:13:00.617Z,20.17
2018-01-14T15:15:28.218Z,18.10
2018-01-14T15:17:56.574Z,17.53
2018-01-14T15:20:24.163Z,18.87
2018-01-14T15:22:52.526Z,19.17
2018-01-14T15:25:20.108Z,25.20
2018-01-14T15:27:48.496Z,20.23
2018-01-14T15:30:16.868Z,16.87
2018-01-14T15:32:45.237Z,18.07
2018-01-14T15:35:12.893Z,18.90
2018-01-14T15:37:40.492Z,23.90
2018-01-14T15:40:08.061Z,17.40
2018-01-14T15:42:35.633Z,19.03
2018-01-14T15:45:03.219Z,40.27
2018-01-14T15:47:30.794Z,28.33
2018-01-14T15:49:58.402Z,29.80
2018-01-14T15:52:25.998Z,206.47
2018-01-14T15:54:53.642Z,101.17
2018-01-14T15:57:21.231Z,51.37
2018-01-14T15:59:48.793Z,34.53
2018-01-14T16:02:17.171Z,34.70
2018-01-14T16:04:44.741Z,28.10
2018-01-14T16:07:12.302Z,31.83
2018-01-14T16:09:39.893Z,24.50
2018-01-14T16:12:08.232Z,26.50
2018-01-14T16:14:35.825Z,21.53
2018-01-14T16:17:04.163Z,22.43
2018-01-14T16:19:31.785Z,22.95
2018-01-14T16:21:59.336Z,26.60
2018-01-14T16:24:26.909Z,23.47
2018-01-14T16:26:54.489Z,18.40
2018-01-14T16:29:22.074Z,23.97
2018-01-14T16:31:49.664Z,22.67
2018-01-14T16:34:17.990Z,28.50
2018-01-14T16:36:45.755Z,23.07
2018-01-14T16:39:13.356Z,19.27
2018-01-14T16:41:41.726Z,23.23
2018-01-14T16:44:09.368Z,21.30
2018-01-14T16:46:36.983Z,19.97
2018-01-14T16:49:04.656Z,26.50
2018-01-14T16:51:32.258Z,20.67
2018-01-14T16:53:59.942Z,19.10
2018-01-14T16:56:27.508Z,18.47
2018-01-14T16:58:55.121Z,20.57
2018-01-14T17:01:22.697Z,23.03
2018-01-14T17:03:50.321Z,20.20
2018-01-14T17:06:17.888Z,20.60
2018-01-14T17:08:45.512Z,22.43
2018-01-14T17:11:13.094Z,21.30
2018-01-14T17:13:42.395Z,26.77
2018-01-14T17:16:10.734Z,21.73
2018-01-14T17:18:38.314Z,19.67
2018-01-14T17:21:06.203Z,22.23
2018-01-14T17:23:36.063Z,29.00
2018-01-14T17:26:03.680Z,29.10
2018-01-14T17:28:35.203Z,22.13
2018-01-14T17:36:57.223Z,26.70
2018-01-14T17:39:24.871Z,24.03
2018-01-14T17:41:53.814Z,31.47
2018-01-14T17:44:21.515Z,43.07
2018-01-14T17:46:49.843Z,34.47
2018-01-14T17:49:17.505Z,25.80
2018-01-14T17:51:45.081Z,32.80
2018-01-14T17:54:12.684Z,29.90
2018-01-14T17:56:40.607Z,36.80
2018-01-14T17:59:08.233Z,30.40
2018-01-14T18:01:35.850Z,34.10
2018-01-14T18:04:03.494Z,31.90
2018-01-14T18:06:31.077Z,34.67
2018-01-14T18:08:58.704Z,35.23
2018-01-14T18:11:26.296Z,40.20
2018-01-14T18:13:53.921Z,35.90
2018-01-14T18:16:21.574Z,31.77
2018-01-14T18:18:49.164Z,37.63
2018-01-14T18:21:16.851Z,37.80
2018-01-14T18:23:44.448Z,43.20
2018-01-14T18:26:12.067Z,39.97
2018-01-14T18:28:39.747Z,42.13
2018-01-14T18:31:07.333Z,42.30
2018-01-14T18:33:35.697Z,44.40
2018-01-14T18:36:04.030Z,41.80
2018-01-14T18:38:31.686Z,40.00
2018-01-14T18:40:59.310Z,38.60
2018-01-14T18:43:27.683Z,31.07
2018-01-14T18:46:09.688Z,33.97
2018-01-14T18:48:38.023Z,31.77
2018-01-14T18:51:05.636Z,34.30
2018-01-14T18:53:33.957Z,32.83
2018-01-14T18:56:01.543Z,28.63
2018-01-14T18:58:29.479Z,31.23
2018-01-14T19:00:57.103Z,31.50
2018-01-14T19:03:25.513Z,28.50
2018-01-14T19:05:53.190Z,34.60
2018-01-14T19:08:20.800Z,27.53
2018-01-14T19:10:49.168Z,41.40
2018-01-14T19:26:16.761Z,49.67
2018-01-14T19:28:45.545Z,41.70
2018-01-14T19:31:13.140Z,39.17
2018-01-14T19:33:40.722Z,46.10
2018-01-14T19:36:08.329Z,44.83
2018-01-14T19:38:35.929Z,37.13
2018-01-14T19:41:03.548Z,39.27
2018-01-14T19:43:31.149Z,35.83
2018-01-14T19:45:58.735Z,43.97
2018-01-14T19:48:27.137Z,45.80
2018-01-14T19:50:55.510Z,42.37
2018-01-14T19:53:23.891Z,35.50
2018-01-14T19:55:52.285Z,46.37
2018-01-14T19:58:19.902Z,36.57
2018-01-14T20:00:47.678Z,59.40
2018-01-14T20:03:15.222Z,76.17
2018-01-14T20:05:48.399Z,49.07
2018-01-14T20:08:16.504Z,35.90
2018-01-14T20:10:44.316Z,37.77
2018-01-14T20:13:11.929Z,35.13
2018-01-14T20:15:40.384Z,34.00
2018-01-14T20:18:07.979Z,34.13
2018-01-14T20:20:35.610Z,32.33
2018-01-14T20:23:03.254Z,33.57
2018-01-14T20:25:30.830Z,31.07
2018-01-14T20:27:58.511Z,33.53
2018-01-14T20:30:26.876Z,28.80
2018-01-14T20:32:54.650Z,26.60
2018-01-14T20:35:22.325Z,33.37
2018-01-14T20:37:49.878Z,30.10
2018-01-14T20:40:17.581Z,28.50
2018-01-14T20:42:45.190Z,28.70
2018-01-14T20:45:12.817Z,25.00
2018-01-14T20:47:40.394Z,33.43
2018-01-14T20:50:08.759Z,31.13
2018-01-14T20:52:36.378Z,26.40
2018-01-14T20:55:04.037Z,29.00
2018-01-14T20:57:31.678Z,26.60
2018-01-14T20:59:59.253Z,28.73
2018-01-14T21:02:26.990Z,29.83
2018-01-14T21:04:54.577Z,27.67
2018-01-14T21:07:22.162Z,23.50
2018-01-14T21:09:49.736Z,36.73
2018-01-14T21:12:18.298Z,30.47
2018-01-14T21:14:45.878Z,31.17
2018-01-14T21:17:13.478Z,28.50
2018-01-14T21:19:41.066Z,26.53
2018-01-14T21:22:08.637Z,25.93
2018-01-14T21:24:37.035Z,23.50
2018-01-14T21:27:05.356Z,25.60
2018-01-14T21:29:32.985Z,25.53
2018-01-14T21:32:01.491Z,28.87
2018-01-14T21:34:29.098Z,28.03
2018-01-14T21:36:57.485Z,27.67
2018-01-14T21:39:25.079Z,30.63
2018-01-14T21:41:52.707Z,30.10
2018-01-14T21:44:20.297Z,27.80
2018-01-14T21:46:47.897Z,23.10
2018-01-14T21:49:15.546Z,31.50
2018-01-14T21:51:43.245Z,24.00
2018-01-14T21:54:10.819Z,25.53
2018-01-14T21:56:38.408Z,34.03
2018-01-14T21:59:06.004Z,24.83
2018-01-14T22:01:33.704Z,30.10
2018-01-14T22:04:01.329Z,23.70
2018-01-14T22:06:29.632Z,26.23
2018-01-14T22:08:57.246Z,25.73
2018-01-14T22:11:24.808Z,36.07
2018-01-14T22:13:52.406Z,28.90
2018-01-14T22:16:19.991Z,25.33
2018-01-14T22:18:47.800Z,26.27
2018-01-14T22:21:16.133Z,32.83
2018-01-14T22:23:43.736Z,23.90
2018-01-14T22:26:11.346Z,24.53
2018-01-14T22:28:38.888Z,29.47
2018-01-14T22:31:06.478Z,31.10
2018-01-14T22:33:34.061Z,29.63
2018-01-14T22:36:02.544Z,25.67
2018-01-14T22:38:30.872Z,27.27
2018-01-14T22:40:58.461Z,22.87
2018-01-14T22:43:26.094Z,26.87
2018-01-14T22:45:53.672Z,28.87
2018-01-14T22:48:21.262Z,27.13
2018-01-14T22:50:49.601Z,26.50
2018-01-14T22:53:17.168Z,23.87
2018-01-14T22:55:44.741Z,29.57
2018-01-14T22:58:12.321Z,29.90
2018-01-14T23:00:40.673Z,26.87
2018-01-14T23:03:08.326Z,30.67
2018-01-14T23:05:35.876Z,24.60
2018-01-14T23:08:03.474Z,27.97
2018-01-14T23:10:32.114Z,28.93
2018-01-14T23:12:59.729Z,26.60
2018-01-14T23:15:28.085Z,24.90
2018-01-14T23:17:55.701Z,26.30
2018-01-14T23:20:23.297Z,28.53
2018-01-14T23:22:50.901Z,27.27
2018-01-14T23:25:19.264Z,27.33
2018-01-14T23:27:47.584Z,28.10
2018-01-14T23:30:15.216Z,25.97
2018-01-14T23:32:42.745Z,24.40
2018-01-14T23:35:10.349Z,23.17
2018-01-14T23:37:38.041Z,25.23
2018-01-14T23:40:05.646Z,27.20
2018-01-14T23:42:33.196Z,25.20
2018-01-14T23:45:00.887Z,23.07
2018-01-14T23:47:29.229Z,30.03
2018-01-14T23:49:56.802Z,24.13
2018-01-14T23:52:24.454Z,28.97
2018-01-14T23:54:52.048Z,26.40
2018-01-14T23:57:20.401Z,31.23
2018-01-14T23:59:48.006Z,27.77
